Time;durP1;ratioP1;P1;durP2;ratioP2;P2;SDS_P1;SDS_P2;PMS_P1;PMS_P2;Temp;Humidity;BMP_temperature;BMP_pressure;BME280_temperature;BME280_humidity;BME280_pressure;Samples;Min_cycle;Max_cycle;Signal;HPM_P1;HPM_P2
2022/09/01 00:01:10;;;;;;;;;;;13.80;99.90;;;;;;5075345;28;20395;-66
2022/09/01 00:03:36;;;;;;;;;;;13.80;99.90;;;;;;5075569;28;20405;-67
2022/09/01 00:06:02;;;;;;;;;;;13.80;99.90;;;;;;5076052;28;19959;-66
2022/09/01 00:08:28;;;;;;;;;;;13.80;99.90;;;;;;5094601;28;19931;-67
2022/09/01 00:10:53;;;;;;;;;;;13.80;99.90;;;;;;5075967;28;19921;-66
2022/09/01 00:13:19;;;;;;;;;;;13.70;99.90;;;;;;5076090;28;19920;-67
2022/09/01 00:15:44;;;;;;;;;;;13.80;99.90;;;;;;5073662;28;19928;-67
2022/09/01 00:18:10;;;;;;;;;;;13.70;99.90;;;;;;5094403;28;19969;-66
2022/09/01 00:20:35;;;;;;;;;;;13.70;99.90;;;;;;5075849;28;19920;-66
2022/09/01 00:23:01;;;;;;;;;;;13.70;99.90;;;;;;5059224;28;19924;-66
2022/09/01 00:25:27;;;;;;;;;;;13.60;99.90;;;;;;5075847;28;19924;-67
2022/09/01 00:27:53;;;;;;;;;;;13.60;99.90;;;;;;5093573;28;19924;-66
2022/09/01 00:30:19;;;;;;;;;;;13.60;99.90;;;;;;5082913;28;20025;-67
2022/09/01 00:32:45;;;;;;;;;;;13.60;99.90;;;;;;5056828;28;19920;-66
2022/09/01 00:35:14;;;;;;;;;;;13.60;99.90;;;;;;5093483;28;20156;-66
2022/09/01 00:37:40;;;;;;;;;;;13.60;99.90;;;;;;5075057;28;19923;-66
2022/09/01 00:40:06;;;;;;;;;;;13.60;99.90;;;;;;5058411;28;20266;-66
2022/09/01 00:42:31;;;;;;;;;;;13.50;99.90;;;;;;5056998;28;20372;-66
2022/09/01 00:44:57;;;;;;;;;;;13.50;99.90;;;;;;5075226;28;19946;-66
2022/09/01 00:47:22;;;;;;;;;;;13.50;99.90;;;;;;5054922;28;19924;-66
2022/09/01 00:49:49;;;;;;;;;;;13.50;99.90;;;;;;5066578;28;20527;-67
2022/09/01 00:52:18;;;;;;;;;;;13.50;99.90;;;;;;5088106;28;19943;-66
2022/09/01 00:54:45;;;;;;;;;;;13.50;99.90;;;;;;5091211;28;19924;-66
2022/09/01 00:57:11;;;;;;;;;;;13.50;99.90;;;;;;5091151;28;19928;-66
2022/09/01 00:59:42;;;;;;;;;;;13.40;99.90;;;;;;5093526;28;19920;-66
2022/09/01 01:02:09;;;;;;;;;;;13.50;99.90;;;;;;5055964;28;19927;-67
2022/09/01 01:04:36;;;;;;;;;;;13.40;99.90;;;;;;5055175;28;19970;-66
2022/09/01 01:07:01;;;;;;;;;;;13.40;99.90;;;;;;5091562;28;20254;-66
2022/09/01 01:09:29;;;;;;;;;;;13.40;99.90;;;;;;5072618;28;19978;-67
2022/09/01 01:11:59;;;;;;;;;;;13.40;99.90;;;;;;5089034;28;19920;-67
2022/09/01 01:14:26;;;;;;;;;;;13.30;99.90;;;;;;5074865;28;19971;-67
2022/09/01 01:16:53;;;;;;;;;;;13.30;99.90;;;;;;5074790;28;19958;-66
2022/09/01 01:24:55;;;;;;;;;;;13.20;99.90;;;;;;5079109;28;20364;-66
2022/09/01 01:27:21;;;;;;;;;;;13.20;99.90;;;;;;5074663;28;20008;-66
2022/09/01 01:29:47;;;;;;;;;;;13.20;99.90;;;;;;5093011;28;20427;-66
2022/09/01 01:32:13;;;;;;;;;;;13.10;99.90;;;;;;5074752;28;19920;-66
2022/09/01 01:34:41;;;;;;;;;;;13.10;99.90;;;;;;5067637;28;19931;-66
2022/09/01 01:37:08;;;;;;;;;;;13.10;99.90;;;;;;5054328;28;19978;-67
2022/09/01 01:39:33;;;;;;;;;;;13.10;99.90;;;;;;5081221;28;19920;-66
2022/09/01 01:41:59;;;;;;;;;;;13.10;99.90;;;;;;5070462;28;19930;-68
2022/09/01 01:44:27;;;;;;;;;;;13.00;99.90;;;;;;5057125;28;19920;-66
2022/09/01 01:46:53;;;;;;;;;;;13.00;99.90;;;;;;5091315;28;19920;-66
2022/09/01 01:49:20;;;;;;;;;;;13.00;99.90;;;;;;5092368;28;20047;-66
2022/09/01 01:51:47;;;;;;;;;;;13.00;99.90;;;;;;5091722;28;19924;-66
2022/09/01 01:54:13;;;;;;;;;;;13.00;99.90;;;;;;5071259;28;19931;-66
2022/09/01 01:56:40;;;;;;;;;;;13.00;99.90;;;;;;5067782;28;19924;-66
2022/09/01 01:59:08;;;;;;;;;;;12.90;99.90;;;;;;5070360;28;20284;-66
2022/09/01 02:01:34;;;;;;;;;;;12.90;99.90;;;;;;5070883;28;19924;-66
2022/09/01 02:04:02;;;;;;;;;;;12.90;99.90;;;;;;5072826;28;19931;-66
2022/09/01 02:06:31;;;;;;;;;;;12.90;99.90;;;;;;5090483;28;19924;-66
2022/09/01 02:08:56;;;;;;;;;;;12.90;99.90;;;;;;5091062;28;19924;-66
2022/09/01 02:11:22;;;;;;;;;;;12.80;99.90;;;;;;5072352;28;19931;-66
2022/09/01 02:13:48;;;;;;;;;;;12.80;99.90;;;;;;5075419;28;19959;-66
2022/09/01 02:16:15;;;;;;;;;;;12.80;99.90;;;;;;5072426;28;19951;-66
2022/09/01 02:18:48;;;;;;;;;;;12.80;99.90;;;;;;5070450;28;19969;-66
2022/09/01 02:21:18;;;;;;;;;;;12.70;99.90;;;;;;5091374;28;19928;-66
2022/09/01 02:23:45;;;;;;;;;;;12.70;99.90;;;;;;5065490;28;19924;-66
2022/09/01 02:26:10;;;;;;;;;;;12.70;99.90;;;;;;5064069;28;19947;-66
2022/09/01 02:28:38;;;;;;;;;;;12.70;99.90;;;;;;5068402;28;20353;-66
2022/09/01 02:31:05;;;;;;;;;;;12.70;99.90;;;;;;5081845;28;19924;-66
2022/09/01 02:33:33;;;;;;;;;;;12.70;99.90;;;;;;5059097;28;19927;-66
2022/09/01 02:36:00;;;;;;;;;;;12.70;99.90;;;;;;5070839;28;19924;-66
2022/09/01 02:38:28;;;;;;;;;;;12.70;99.90;;;;;;5090494;28;19924;-66
2022/09/01 02:40:54;;;;;;;;;;;12.70;99.90;;;;;;5083895;28;20008;-67
2022/09/01 02:43:20;;;;;;;;;;;12.70;99.90;;;;;;5062196;28;19927;-67
2022/09/01 02:45:50;;;;;;;;;;;12.70;99.90;;;;;;5085280;28;19924;-66
2022/09/01 02:48:17;;;;;;;;;;;12.70;99.90;;;;;;5059079;28;19963;-66
2022/09/01 02:50:42;;;;;;;;;;;12.70;99.90;;;;;;5070538;28;19924;-66
2022/09/01 02:53:11;;;;;;;;;;;12.70;99.90;;;;;;5052199;28;19931;-66
2022/09/01 02:55:36;;;;;;;;;;;12.70;99.90;;;;;;5053360;28;19928;-66
2022/09/01 02:58:02;;;;;;;;;;;12.80;99.90;;;;;;5072159;28;19920;-66
2022/09/01 03:00:30;;;;;;;;;;;12.80;99.90;;;;;;5053249;28;19920;-66
2022/09/01 03:02:57;;;;;;;;;;;12.90;99.90;;;;;;5065862;28;20383;-66
2022/09/01 03:05:25;;;;;;;;;;;12.90;99.90;;;;;;5069358;28;19935;-67
2022/09/01 03:07:55;;;;;;;;;;;12.90;99.90;;;;;;5086134;28;19924;-66
2022/09/01 03:10:22;;;;;;;;;;;12.90;99.90;;;;;;5071539;28;20388;-67
2022/09/01 03:12:48;;;;;;;;;;;12.90;99.90;;;;;;5069488;28;19967;-66
2022/09/01 03:15:13;;;;;;;;;;;13.00;99.90;;;;;;5089137;28;19990;-67
2022/09/01 03:17:40;;;;;;;;;;;12.90;99.90;;;;;;5092381;28;19920;-67
2022/09/01 03:20:06;;;;;;;;;;;13.00;99.90;;;;;;5072246;28;19939;-67
2022/09/01 03:22:32;;;;;;;;;;;12.90;99.90;;;;;;5075999;28;19920;-66
2022/09/01 03:24:58;;;;;;;;;;;13.00;99.90;;;;;;5073664;28;19920;-67
2022/09/01 03:27:23;;;;;;;;;;;12.90;99.90;;;;;;5074462;28;19940;-67
2022/09/01 03:29:49;;;;;;;;;;;12.90;99.90;;;;;;5093617;28;19924;-67
2022/09/01 03:32:14;;;;;;;;;;;12.90;99.90;;;;;;5091941;28;19930;-67
2022/09/01 03:34:40;;;;;;;;;;;12.90;99.90;;;;;;5072092;28;19924;-67
2022/09/01 03:37:06;;;;;;;;;;;12.90;99.90;;;;;;5074240;28;19934;-67
2022/09/01 03:39:32;;;;;;;;;;;12.80;99.90;;;;;;5074476;28;20384;-67
2022/09/01 03:41:59;;;;;;;;;;;12.80;99.90;;;;;;5072737;28;19928;-66
2022/09/01 03:44:25;;;;;;;;;;;12.80;99.90;;;;;;5093909;28;19920;-66
2022/09/01 03:46:51;;;;;;;;;;;12.70;99.90;;;;;;5092557;28;19920;-66
2022/09/01 03:49:23;;;;;;;;;;;12.60;99.90;;;;;;5073558;28;19934;-67
2022/09/01 03:51:49;;;;;;;;;;;12.60;99.90;;;;;;5087491;28;20542;-67
2022/09/01 03:54:15;;;;;;;;;;;12.60;99.90;;;;;;5090499;28;19926;-67
2022/09/01 03:56:40;;;;;;;;;;;12.60;99.90;;;;;;5089980;28;20010;-66
2022/09/01 03:59:06;;;;;;;;;;;12.50;99.90;;;;;;5093634;28;19924;-66
2022/09/01 04:01:33;;;;;;;;;;;12.40;99.90;;;;;;5089782;28;19944;-67
2022/09/01 04:04:00;;;;;;;;;;;12.40;99.90;;;;;;5073397;28;20034;-66
2022/09/01 04:06:25;;;;;;;;;;;12.40;99.90;;;;;;5074175;28;19924;-66
2022/09/01 04:09:01;;;;;;;;;;;12.40;99.90;;;;;;5068322;28;19921;-66
2022/09/01 04:11:27;;;;;;;;;;;12.40;99.90;;;;;;5067104;28;20740;-66
2022/09/01 04:13:52;;;;;;;;;;;12.30;99.90;;;;;;5090521;28;19924;-66
2022/09/01 04:19:14;;;;;;;;;;;12.30;99.90;;;;;;5070570;28;19971;-67
2022/09/01 04:21:41;;;;;;;;;;;12.30;99.90;;;;;;5074653;28;20336;-67
2022/09/01 04:24:08;;;;;;;;;;;12.30;99.90;;;;;;5093061;28;19920;-66
2022/09/01 04:26:33;;;;;;;;;;;12.30;99.90;;;;;;5071438;28;19927;-67
2022/09/01 04:28:59;;;;;;;;;;;12.30;99.90;;;;;;5091441;28;19923;-67
2022/09/01 04:31:25;;;;;;;;;;;12.20;99.90;;;;;;5091875;28;19932;-67
2022/09/01 04:33:51;;;;;;;;;;;12.20;99.90;;;;;;5070583;28;20320;-67
2022/09/01 04:36:18;;;;;;;;;;;12.20;99.90;;;;;;5075454;28;20409;-67
2022/09/01 04:38:45;;;;;;;;;;;12.20;99.90;;;;;;5069559;28;19970;-67
2022/09/01 04:41:15;;;;;;;;;;;12.20;99.90;;;;;;5069899;28;20397;-67
2022/09/01 04:43:40;;;;;;;;;;;12.20;99.90;;;;;;5088568;28;19926;-67
2022/09/01 04:46:06;;;;;;;;;;;12.20;99.90;;;;;;5075302;28;19920;-67
2022/09/01 04:48:34;;;;;;;;;;;12.20;99.90;;;;;;5074626;28;19920;-67
2022/09/01 04:51:00;;;;;;;;;;;12.20;99.90;;;;;;5067883;28;20014;-66
2022/09/01 04:53:26;;;;;;;;;;;12.20;99.90;;;;;;5091168;28;20019;-66
2022/09/01 04:55:54;;;;;;;;;;;12.20;99.90;;;;;;5073355;28;19935;-66
2022/09/01 04:58:20;;;;;;;;;;;12.20;99.90;;;;;;5089588;28;19940;-66
2022/09/01 05:00:48;;;;;;;;;;;12.20;99.90;;;;;;5090295;28;20026;-67
2022/09/01 05:03:14;;;;;;;;;;;12.20;99.90;;;;;;5054921;28;19921;-66
2022/09/01 05:05:41;;;;;;;;;;;12.20;99.90;;;;;;5091559;28;20396;-66
2022/09/01 05:08:12;;;;;;;;;;;12.30;99.90;;;;;;5069334;28;19927;-66
2022/09/01 05:10:40;;;;;;;;;;;12.40;99.90;;;;;;5072709;28;20016;-66
2022/09/01 05:13:08;;;;;;;;;;;12.40;99.90;;;;;;5092615;28;19932;-66
2022/09/01 05:15:39;;;;;;;;;;;12.50;99.90;;;;;;5092288;28;19927;-66
2022/09/01 05:18:08;;;;;;;;;;;12.50;99.90;;;;;;5093264;28;19934;-66
2022/09/01 05:20:39;;;;;;;;;;;12.60;99.90;;;;;;5072528;28;19920;-66
2022/09/01 05:23:05;;;;;;;;;;;12.60;99.90;;;;;;5074266;28;20129;-66
2022/09/01 05:25:37;;;;;;;;;;;12.70;99.90;;;;;;5052595;28;19924;-66
2022/09/01 05:28:03;;;;;;;;;;;12.70;99.90;;;;;;5072670;28;19920;-67
2022/09/01 05:30:29;;;;;;;;;;;12.80;99.90;;;;;;5089779;28;19928;-66
2022/09/01 05:32:55;;;;;;;;;;;12.80;99.90;;;;;;5083351;28;20451;-66
2022/09/01 05:35:23;;;;;;;;;;;12.90;99.90;;;;;;5054428;28;19924;-66
2022/09/01 05:37:50;;;;;;;;;;;12.90;99.90;;;;;;5072324;28;20423;-67
2022/09/01 05:40:16;;;;;;;;;;;12.90;99.90;;;;;;5088339;28;20480;-67
2022/09/01 05:42:44;;;;;;;;;;;12.90;99.90;;;;;;5074602;28;19920;-67
2022/09/01 05:45:14;;;;;;;;;;;13.00;99.90;;;;;;5062632;28;19927;-66
2022/09/01 05:47:40;;;;;;;;;;;13.00;99.90;;;;;;5089573;28;19931;-66
2022/09/01 05:50:09;;;;;;;;;;;13.10;99.90;;;;;;5064236;28;19928;-67
2022/09/01 05:52:36;;;;;;;;;;;13.10;99.90;;;;;;5090728;28;19966;-66
2022/09/01 05:55:03;;;;;;;;;;;13.20;99.90;;;;;;5066219;28;19964;-66
2022/09/01 05:57:28;;;;;;;;;;;13.30;99.90;;;;;;5054477;28;20593;-66
2022/09/01 05:59:54;;;;;;;;;;;13.60;99.90;;;;;;5057762;28;19926;-66
2022/09/01 06:02:20;;;;;;;;;;;13.90;99.90;;;;;;5084802;28;19947;-67
2022/09/01 06:04:46;;;;;;;;;;;14.10;99.90;;;;;;5084958;28;20010;-67
2022/09/01 06:07:13;;;;;;;;;;;14.30;99.90;;;;;;5060904;28;20018;-66
2022/09/01 06:09:39;;;;;;;;;;;15.20;99.90;;;;;;5064074;28;19924;-66
2022/09/01 06:12:05;;;;;;;;;;;15.70;99.90;;;;;;5090860;28;19975;-67
2022/09/01 06:14:30;;;;;;;;;;;16.20;99.90;;;;;;5073554;28;19963;-67
2022/09/01 06:16:56;;;;;;;;;;;17.40;99.90;;;;;;5077544;28;19946;-67
2022/09/01 06:19:22;;;;;;;;;;;18.40;99.90;;;;;;5068321;28;19924;-67
2022/09/01 06:21:47;;;;;;;;;;;19.60;98.50;;;;;;5087527;28;19927;-67
2022/09/01 06:24:13;;;;;;;;;;;20.70;99.30;;;;;;5074438;28;19926;-67
2022/09/01 06:26:39;;;;;;;;;;;21.60;95.90;;;;;;5075544;28;20289;-67
2022/09/01 06:29:08;;;;;;;;;;;22.10;95.00;;;;;;5070912;28;20520;-67
2022/09/01 06:31:37;;;;;;;;;;;22.10;92.90;;;;;;5068065;28;19932;-67
2022/09/01 06:34:05;;;;;;;;;;;22.80;92.70;;;;;;5060158;28;20383;-67
2022/09/01 06:36:35;;;;;;;;;;;22.80;92.40;;;;;;5072254;28;20498;-67
2022/09/01 06:39:01;;;;;;;;;;;22.20;90.70;;;;;;5057096;28;19928;-67
2022/09/01 06:41:27;;;;;;;;;;;21.70;93.60;;;;;;5069643;28;19929;-67
2022/09/01 06:43:52;;;;;;;;;;;22.00;91.10;;;;;;5069412;28;20294;-68
2022/09/01 06:46:19;;;;;;;;;;;22.80;90.90;;;;;;5069230;28;19920;-67
2022/09/01 06:48:45;;;;;;;;;;;23.40;91.50;;;;;;5066537;28;19967;-67
2022/09/01 06:51:16;;;;;;;;;;;23.90;90.40;;;;;;5050475;28;19920;-67
2022/09/01 06:53:42;;;;;;;;;;;24.40;88.80;;;;;;5062865;28;20424;-67
2022/09/01 06:56:11;;;;;;;;;;;24.90;87.20;;;;;;5068856;28;19925;-67
2022/09/01 06:58:39;;;;;;;;;;;24.70;87.60;;;;;;5062952;28;19921;-68
2022/09/01 07:01:13;;;;;;;;;;;25.00;87.90;;;;;;5073965;28;19921;-67
2022/09/01 07:03:38;;;;;;;;;;;25.70;81.50;;;;;;5075369;28;19948;-68
2022/09/01 07:06:05;;;;;;;;;;;25.60;82.70;;;;;;5073349;28;19959;-67
2022/09/01 07:08:38;;;;;;;;;;;25.60;79.70;;;;;;5065176;28;19932;-67
2022/09/01 07:11:14;;;;;;;;;;;25.60;78.30;;;;;;5060666;28;20374;-67
2022/09/01 07:13:41;;;;;;;;;;;26.10;82.30;;;;;;5069566;28;20016;-67
2022/09/01 07:16:08;;;;;;;;;;;26.80;78.30;;;;;;5070996;28;19924;-67
2022/09/01 07:18:33;;;;;;;;;;;26.30;76.70;;;;;;5072512;28;19921;-67
2022/09/01 07:21:01;;;;;;;;;;;26.90;81.60;;;;;;5068941;28;20417;-67
2022/09/01 07:23:28;;;;;;;;;;;26.80;78.30;;;;;;5067086;28;19920;-67
2022/09/01 07:25:54;;;;;;;;;;;26.10;76.90;;;;;;5073640;28;19977;-70
2022/09/01 07:28:22;;;;;;;;;;;26.20;78.10;;;;;;5056724;28;19925;-70
2022/09/01 07:30:49;;;;;;;;;;;26.10;78.00;;;;;;5053535;28;19924;-70
2022/09/01 07:33:15;;;;;;;;;;;26.50;77.80;;;;;;5053628;28;19921;-70
2022/09/01 07:35:41;;;;;;;;;;;26.60;77.00;;;;;;5053565;28;19925;-70
2022/09/01 07:38:08;;;;;;;;;;;26.80;75.50;;;;;;5064342;28;19974;-70
2022/09/01 07:40:37;;;;;;;;;;;27.00;75.30;;;;;;5073547;28;20055;-70
2022/09/01 07:43:07;;;;;;;;;;;26.70;75.40;;;;;;5073316;28;19920;-71
2022/09/01 07:45:34;;;;;;;;;;;26.10;76.40;;;;;;5060702;28;19921;-70
2022/09/01 07:48:05;;;;;;;;;;;25.40;77.10;;;;;;5057128;28;19920;-71
2022/09/01 07:50:31;;;;;;;;;;;24.20;79.60;;;;;;5058490;28;19935;-70
2022/09/01 07:52:57;;;;;;;;;;;23.30;82.10;;;;;;5067449;28;19928;-70
2022/09/01 07:55:22;;;;;;;;;;;22.50;84.30;;;;;;5072327;28;19928;-70
2022/09/01 07:57:48;;;;;;;;;;;22.10;85.30;;;;;;5071477;28;19931;-70
2022/09/01 08:00:14;;;;;;;;;;;21.60;88.20;;;;;;5069308;28;20003;-70
2022/09/01 08:02:40;;;;;;;;;;;21.50;87.60;;;;;;5071047;28;19927;-69
2022/09/01 08:05:07;;;;;;;;;;;21.20;89.20;;;;;;5072415;28;19971;-70
2022/09/01 08:07:33;;;;;;;;;;;21.10;88.80;;;;;;5071842;28;20362;-69
2022/09/01 08:09:59;;;;;;;;;;;20.90;89.80;;;;;;5062047;28;19927;-69
2022/09/01 08:12:24;;;;;;;;;;;20.90;90.10;;;;;;5067428;28;20019;-69
2022/09/01 08:14:52;;;;;;;;;;;20.90;90.20;;;;;;5072166;28;20292;-69
2022/09/01 08:17:18;;;;;;;;;;;20.70;90.60;;;;;;5068890;28;19970;-69
2022/09/01 08:19:45;;;;;;;;;;;20.70;90.80;;;;;;5072994;28;19924;-69
2022/09/01 08:22:11;;;;;;;;;;;20.70;91.20;;;;;;5068599;28;19970;-69
2022/09/01 08:24:37;;;;;;;;;;;20.60;91.30;;;;;;5071346;28;19924;-69
2022/09/01 08:27:03;;;;;;;;;;;20.70;91.40;;;;;;5072528;28;19970;-70
2022/09/01 08:29:28;;;;;;;;;;;20.70;91.80;;;;;;5062098;28;20337;-69
2022/09/01 08:31:54;;;;;;;;;;;20.70;91.30;;;;;;5081794;28;19939;-69
2022/09/01 08:34:19;;;;;;;;;;;20.50;91.60;;;;;;5070168;28;19924;-69
2022/09/01 08:36:45;;;;;;;;;;;20.50;91.90;;;;;;5071511;28;19933;-69
2022/09/01 08:39:10;;;;;;;;;;;20.50;92.10;;;;;;5080071;28;19924;-70
2022/09/01 08:41:44;;;;;;;;;;;20.60;92.20;;;;;;5091483;28;19967;-69
2022/09/01 08:44:14;;;;;;;;;;;20.60;92.20;;;;;;5075329;28;19923;-69
2022/09/01 08:46:41;;;;;;;;;;;20.70;92.00;;;;;;5075267;28;19928;-69
2022/09/01 08:49:20;;;;;;;;;;;20.70;91.80;;;;;;5091748;28;19960;-69
2022/09/01 08:51:52;;;;;;;;;;;20.90;91.70;;;;;;5074773;28;20640;-70
2022/09/01 08:54:23;;;;;;;;;;;20.90;90.90;;;;;;5079242;22;19932;-66
2022/09/01 08:56:56;;;;;;;;;;;21.00;91.50;;;;;;5079963;28;19967;-66
2022/09/01 08:59:22;;;;;;;;;;;21.10;91.60;;;;;;5079550;28;19927;-66
2022/09/01 09:01:58;;;;;;;;;;;21.10;91.60;;;;;;5091898;28;20276;-66
2022/09/01 09:04:33;;;;;;;;;;;21.20;91.60;;;;;;5076221;28;19920;-66
2022/09/01 09:07:11;;;;;;;;;;;21.40;91.50;;;;;;5072604;28;20324;-66
2022/09/01 09:09:43;;;;;;;;;;;21.20;91.20;;;;;;5075460;28;20011;-66
2022/09/01 09:12:19;;;;;;;;;;;21.40;90.30;;;;;;5072707;28;20385;-66
2022/09/01 09:14:53;;;;;;;;;;;21.40;90.00;;;;;;5051742;28;19959;-67
2022/09/01 09:17:22;;;;;;;;;;;21.50;90.50;;;;;;5075650;28;19950;-66
2022/09/01 09:19:47;;;;;;;;;;;21.70;90.70;;;;;;5093305;28;19963;-66
2022/09/01 09:22:14;;;;;;;;;;;21.70;90.10;;;;;;5079184;28;19977;-66
2022/09/01 09:24:50;;;;;;;;;;;21.70;90.30;;;;;;5075605;28;19995;-66
2022/09/01 09:27:16;;;;;;;;;;;21.80;90.20;;;;;;5087894;28;19977;-66
2022/09/01 09:29:41;;;;;;;;;;;21.90;89.70;;;;;;5061623;28;19920;-66
2022/09/01 09:32:09;;;;;;;;;;;22.00;90.00;;;;;;5063724;28;19930;-66
2022/09/01 09:34:36;;;;;;;;;;;22.00;87.90;;;;;;5078595;28;19930;-66
2022/09/01 09:37:20;;;;;;;;;;;22.10;90.10;;;;;;5075538;28;19928;-66
2022/09/01 09:40:00;;;;;;;;;;;22.30;87.80;;;;;;5089375;28;19920;-66
2022/09/01 09:42:26;;;;;;;;;;;22.20;87.10;;;;;;5075143;28;19931;-67
2022/09/01 09:44:54;;;;;;;;;;;22.20;88.90;;;;;;5074060;28;19931;-66
2022/09/01 09:47:32;;;;;;;;;;;22.30;86.60;;;;;;5073868;28;19920;-66
2022/09/01 09:50:11;;;;;;;;;;;22.30;85.20;;;;;;5063261;28;19935;-66
2022/09/01 09:52:36;;;;;;;;;;;22.40;88.80;;;;;;5077135;28;19924;-66
2022/09/01 09:55:17;;;;;;;;;;;22.60;84.80;;;;;;5047577;28;19928;-66
2022/09/01 09:57:44;;;;;;;;;;;22.60;85.30;;;;;;5083649;28;20068;-66
2022/09/01 10:00:25;;;;;;;;;;;22.70;86.00;;;;;;5066224;28;19928;-66
2022/09/01 10:02:53;;;;;;;;;;;22.90;85.50;;;;;;5070899;28;19922;-66
2022/09/01 10:05:21;;;;;;;;;;;22.80;81.20;;;;;;5090659;28;20694;-66
2022/09/01 10:07:47;;;;;;;;;;;22.80;84.60;;;;;;5074930;28;19935;-66
2022/09/01 10:10:28;;;;;;;;;;;22.70;81.00;;;;;;5072880;28;19924;-66
2022/09/01 10:12:55;;;;;;;;;;;22.80;83.50;;;;;;5070298;28;19927;-66
2022/09/01 10:15:23;;;;;;;;;;;22.80;85.20;;;;;;5071616;28;20038;-66
2022/09/01 10:17:50;;;;;;;;;;;23.00;78.70;;;;;;5072924;28;19963;-66
2022/09/01 10:20:19;;;;;;;;;;;23.00;85.00;;;;;;5067334;28;19928;-66
2022/09/01 10:22:45;;;;;;;;;;;23.30;80.50;;;;;;5083855;28;20376;-66
2022/09/01 10:25:25;;;;;;;;;;;23.20;74.80;;;;;;5075182;28;19920;-66
2022/09/01 10:27:53;;;;;;;;;;;23.20;75.70;;;;;;5077057;28;19931;-66
2022/09/01 10:30:19;;;;;;;;;;;23.20;77.10;;;;;;5064699;28;19920;-66
2022/09/01 10:32:50;;;;;;;;;;;23.10;76.00;;;;;;5067543;28;19925;-66
2022/09/01 10:35:24;;;;;;;;;;;23.10;80.20;;;;;;5070371;28;20014;-66
2022/09/01 10:37:50;;;;;;;;;;;23.50;79.80;;;;;;5070369;28;19927;-66
2022/09/01 10:40:33;;;;;;;;;;;23.70;73.40;;;;;;5069114;28;19920;-68
2022/09/01 10:43:20;;;;;;;;;;;24.00;76.50;;;;;;5067463;28;19973;-66
2022/09/01 10:45:46;;;;;;;;;;;23.80;78.10;;;;;;5060669;28;19920;-66
2022/09/01 10:48:22;;;;;;;;;;;23.60;79.10;;;;;;5085214;28;19920;-66
2022/09/01 10:51:11;;;;;;;;;;;23.60;80.60;;;;;;5074683;28;19920;-65
2022/09/01 10:53:38;;;;;;;;;;;23.50;79.60;;;;;;5091516;28;19928;-66
2022/09/01 10:56:15;;;;;;;;;;;23.30;73.20;;;;;;5067237;28;19946;-66
2022/09/01 10:58:48;;;;;;;;;;;23.10;76.90;;;;;;5074352;28;20026;-66
2022/09/01 11:01:14;;;;;;;;;;;22.90;74.50;;;;;;5074368;28;19920;-66
2022/09/01 11:03:55;;;;;;;;;;;22.90;74.30;;;;;;5072829;28;20384;-66
2022/09/01 11:06:32;;;;;;;;;;;23.00;77.10;;;;;;5092648;28;19927;-66
2022/09/01 11:09:01;;;;;;;;;;;23.10;78.80;;;;;;5074416;28;19927;-66
2022/09/01 11:11:36;;;;;;;;;;;23.40;74.90;;;;;;5073988;28;20026;-66
2022/09/01 11:14:04;;;;;;;;;;;23.60;73.70;;;;;;5092495;28;19924;-66
2022/09/01 11:16:40;;;;;;;;;;;23.70;77.70;;;;;;5074704;28;20385;-66
2022/09/01 11:19:25;;;;;;;;;;;24.00;75.20;;;;;;5057364;28;19920;-66
2022/09/01 11:22:26;;;;;;;;;;;23.80;69.70;;;;;;5074953;28;20434;-66
2022/09/01 11:25:05;;;;;;;;;;;23.70;72.20;;;;;;4994374;28;20438;-66
2022/09/01 11:27:49;;;;;;;;;;;23.80;71.40;;;;;;5049119;28;19923;-66
2022/09/01 11:30:15;;;;;;;;;;;23.60;70.40;;;;;;5062352;28;20251;-66
2022/09/01 11:32:41;;;;;;;;;;;23.60;71.10;;;;;;5055286;28;19920;-66
2022/09/01 11:35:15;;;;;;;;;;;23.50;76.30;;;;;;5055423;28;19928;-66
2022/09/01 11:37:41;;;;;;;;;;;23.40;70.70;;;;;;5056391;28;20388;-66
2022/09/01 11:40:08;;;;;;;;;;;23.50;76.60;;;;;;5075582;28;19970;-66
2022/09/01 11:42:42;;;;;;;;;;;23.80;76.60;;;;;;5078269;28;20377;-66
2022/09/01 11:45:11;;;;;;;;;;;23.60;69.80;;;;;;5077500;28;19920;-66
2022/09/01 11:47:39;;;;;;;;;;;23.50;70.70;;;;;;5078294;28;20048;-66
2022/09/01 11:50:06;;;;;;;;;;;23.50;77.60;;;;;;5077779;28;19925;-66
2022/09/01 11:52:36;;;;;;;;;;;23.60;76.50;;;;;;5077954;28;19927;-65
2022/09/01 11:55:03;;;;;;;;;;;23.70;73.40;;;;;;5078003;28;19927;-66
2022/09/01 11:57:32;;;;;;;;;;;23.50;74.00;;;;;;5077983;28;19934;-66
2022/09/01 11:59:59;;;;;;;;;;;23.30;70.90;;;;;;5078225;28;19927;-66
2022/09/01 12:02:26;;;;;;;;;;;23.20;75.60;;;;;;5073256;28;19920;-66
2022/09/01 12:04:54;;;;;;;;;;;23.00;75.20;;;;;;5073700;28;19949;-66
2022/09/01 12:07:24;;;;;;;;;;;23.00;74.40;;;;;;5077199;28;19924;-66
2022/09/01 12:09:50;;;;;;;;;;;22.90;75.10;;;;;;5077740;28;19920;-66
2022/09/01 12:12:27;;;;;;;;;;;22.90;69.50;;;;;;5077834;28;20624;-66
2022/09/01 12:14:59;;;;;;;;;;;23.20;73.60;;;;;;5060735;28;19959;-66
2022/09/01 12:17:25;;;;;;;;;;;23.50;71.40;;;;;;5077310;28;19931;-66
2022/09/01 12:19:51;;;;;;;;;;;23.60;69.50;;;;;;5077521;28;19920;-66
2022/09/01 12:22:17;;;;;;;;;;;23.60;74.40;;;;;;5067764;28;19932;-66
2022/09/01 12:24:44;;;;;;;;;;;23.80;70.10;;;;;;5057810;28;20266;-66
2022/09/01 12:27:09;;;;;;;;;;;23.90;71.70;;;;;;5066587;28;19967;-66
2022/09/01 12:29:36;;;;;;;;;;;24.10;75.70;;;;;;5076565;28;19968;-66
2022/09/01 12:32:02;;;;;;;;;;;24.20;74.20;;;;;;5060692;28;19947;-66
2022/09/01 12:34:36;;;;;;;;;;;24.20;71.70;;;;;;5077070;28;19924;-66
2022/09/01 12:37:21;;;;;;;;;;;24.00;72.20;;;;;;5095257;28;20365;-66
2022/09/01 12:39:51;;;;;;;;;;;23.50;68.70;;;;;;5077231;28;19928;-66
2022/09/01 12:42:20;;;;;;;;;;;23.50;70.70;;;;;;5077274;28;20377;-66
2022/09/01 12:44:49;;;;;;;;;;;23.60;71.50;;;;;;5076752;28;19920;-66
2022/09/01 12:47:32;;;;;;;;;;;23.50;71.00;;;;;;5068130;28;19973;-66
2022/09/01 12:49:58;;;;;;;;;;;23.20;71.00;;;;;;5039341;28;19967;-66
2022/09/01 12:52:25;;;;;;;;;;;23.20;70.40;;;;;;5057261;28;19920;-66
2022/09/01 12:55:07;;;;;;;;;;;23.10;71.20;;;;;;5067109;28;19924;-66
2022/09/01 12:57:33;;;;;;;;;;;23.20;76.50;;;;;;5077241;28;19973;-66
2022/09/01 13:00:11;;;;;;;;;;;23.60;72.40;;;;;;5077306;28;19924;-66
2022/09/01 13:02:42;;;;;;;;;;;23.60;75.50;;;;;;5056603;28;20397;-66
2022/09/01 13:05:22;;;;;;;;;;;23.50;74.30;;;;;;5067462;28;19999;-66
2022/09/01 13:07:51;;;;;;;;;;;23.30;70.80;;;;;;5076011;28;19926;-66
2022/09/01 13:10:16;;;;;;;;;;;23.20;72.30;;;;;;5077112;28;20277;-66
2022/09/01 13:12:43;;;;;;;;;;;23.20;72.80;;;;;;5060353;28;19931;-66
2022/09/01 13:15:09;;;;;;;;;;;23.40;75.60;;;;;;5059637;28;20328;-66
2022/09/01 13:17:34;;;;;;;;;;;23.70;71.00;;;;;;5076444;28;19920;-66
2022/09/01 13:20:00;;;;;;;;;;;23.90;73.70;;;;;;5075675;28;19920;-66
2022/09/01 13:22:25;;;;;;;;;;;23.80;73.20;;;;;;5094433;28;19924;-66
2022/09/01 13:24:51;;;;;;;;;;;23.50;70.90;;;;;;5058647;28;19931;-66
2022/09/01 13:27:16;;;;;;;;;;;23.40;71.90;;;;;;5075706;28;19931;-66
2022/09/01 13:29:42;;;;;;;;;;;23.40;71.20;;;;;;5076271;28;19982;-66
2022/09/01 13:32:07;;;;;;;;;;;23.30;74.10;;;;;;5075882;28;19920;-66
2022/09/01 13:34:34;;;;;;;;;;;23.40;72.10;;;;;;5075952;28;19924;-66
2022/09/01 13:36:59;;;;;;;;;;;23.50;70.70;;;;;;5094041;28;19919;-66
2022/09/01 13:39:25;;;;;;;;;;;23.80;70.60;;;;;;5093085;28;19973;-66
2022/09/01 13:41:50;;;;;;;;;;;24.00;69.00;;;;;;5058711;28;19973;-66
2022/09/01 13:44:17;;;;;;;;;;;24.20;70.40;;;;;;5075798;28;19920;-66
2022/09/01 13:46:43;;;;;;;;;;;24.30;73.20;;;;;;5075743;28;19920;-66
2022/09/01 13:49:08;;;;;;;;;;;24.60;71.40;;;;;;5075750;28;20031;-66
2022/09/01 13:51:35;;;;;;;;;;;24.80;71.10;;;;;;5075861;28;20396;-66
2022/09/01 13:54:01;;;;;;;;;;;24.90;73.40;;;;;;5075421;28;19930;-66
2022/09/01 13:56:26;;;;;;;;;;;24.80;70.10;;;;;;5058516;28;20010;-66
2022/09/01 13:58:52;;;;;;;;;;;24.90;71.70;;;;;;5074428;28;20011;-66
2022/09/01 14:01:17;;;;;;;;;;;25.00;68.60;;;;;;5073906;28;19924;-66
2022/09/01 14:03:43;;;;;;;;;;;25.00;66.90;;;;;;5040918;28;20029;-66
2022/09/01 14:06:09;;;;;;;;;;;25.20;73.50;;;;;;5074012;28;20262;-66
2022/09/01 14:08:34;;;;;;;;;;;25.10;70.10;;;;;;5074776;28;20270;-66
2022/09/01 14:11:00;;;;;;;;;;;25.20;67.00;;;;;;5089919;28;20011;-66
2022/09/01 14:13:26;;;;;;;;;;;25.20;68.10;;;;;;5092970;28;19928;-66
2022/09/01 14:15:52;;;;;;;;;;;25.20;72.50;;;;;;5069537;28;20017;-66
2022/09/01 14:18:18;;;;;;;;;;;25.20;72.40;;;;;;5074460;28;20046;-66
2022/09/01 14:20:45;;;;;;;;;;;25.00;66.60;;;;;;5052378;28;19999;-66
2022/09/01 14:23:12;;;;;;;;;;;24.70;71.70;;;;;;5086427;28;19965;-66
2022/09/01 14:25:41;;;;;;;;;;;24.40;67.50;;;;;;5075277;28;19924;-66
2022/09/01 14:28:07;;;;;;;;;;;24.10;68.90;;;;;;5074937;28;19924;-66
2022/09/01 14:30:33;;;;;;;;;;;24.00;71.80;;;;;;5074055;28;19927;-66